Uxbridge, MA (01569)

9:02 PM EDT on September 01, 2015 (GMT -0400)
Downtown Uxbridge | | Change Station
CLOSE
Current Station
Personal Weather Station
Location: Uxbridge, MA
Elevation: 295 ft
Nearby Weather Stations

Elev 295 ft 42.07 °N, 71.63 °W | Updated 12 seconds ago

Clear
Clear
71.2 °F
Feels Like 72 °F
N
0.0
Wind Variable Wind from NNW
Gusts 2.0 mph

Today
High -- | Low -- °F
--% Chance of Precip.
Yesterday
High -- | Low -- °F
Precip. -- in
6:11 AM 7:20 PM
Waning Gibbous, 85% visible
Pressure 30.06 in
Visibility 10.0 miles
Clouds Clear
Heat Index 72 °F
Dew Point 65 °F
Humidity 80%
Rainfall 0.00 in
Snow Depth Not available.
UV 0 out of 12
Pollen 9.50 out of 12
Air Quality Not available.
Flu Activity Not available.
METAR KSFZ 020055Z AUTO 19003KT 10SM CLR 21/17 A3006 RMK AO1
Pressure 30.06 in
Visibility 10.0 miles
Clouds Clear
Heat Index 72 °F
Dew Point 65 °F
Humidity 80%
Rainfall 0.00 in
Snow Depth Not available.
UV 0 out of 12
Pollen 9.50 out of 12
Air Quality Not available.
Flu Activity Not available.
METAR KSFZ 020055Z AUTO 19003KT 10SM CLR 21/17 A3006 RMK AO1

10-Day Weather Forecast

×

Almanac

Astronomy

Sep. 01, 2015 Rise Set
Actual Time
Civil Twilight
Nautical Twilight
Astronomical Twilight
Moon
Length of Visible Light
Length of Day
Tomorrow will be .
, % of the Moon is Illuminated

Today's Extremes

State Highs State Lows

Community

WunderPhotos

Upload Photos

1,851,663 photos uploaded!

WunderBlogs® & News

Nearby

Air Quality

  Air Quality AQ Index Pollutant
Not available.

Snow Depth

Station Depth Elevation

Earthquake Activity

City Distance Mag. Time & Date
Minimum magnitude displayed is 2.5.

Coastal Water Temperatures

Place Temperature

Stations

Nearby Weather Stations

Station Location Temp. Windchill Dew Point Humidity Wind Precip. Elev Updated Type